sensor_id;sensor_type;location;lat;lon;timestamp;pressure;altitude;pressure_sealevel;temperature;humidity
23164;BME280;31429;42.674;23.350;2023-04-29T00:00:51;94854.56;;;6.19;100.00
23164;BME280;31429;42.674;23.350;2023-04-29T00:01:52;94847.16;;;6.09;100.00
23164;BME280;31429;42.674;23.350;2023-04-29T00:02:52;94840.44;;;6.05;100.00
23164;BME280;31429;42.674;23.350;2023-04-29T00:03:54;94842.94;;;6.08;100.00
23164;BME280;31429;42.674;23.350;2023-04-29T00:04:54;94842.94;;;6.08;100.00
23164;BME280;31429;42.674;23.350;2023-04-29T00:05:56;94843.63;;;6.16;100.00
23164;BME280;31429;42.674;23.350;2023-04-29T00:06:56;94842.66;;;6.23;100.00
23164;BME280;31429;42.674;23.350;2023-04-29T00:07:58;94845.97;;;6.25;100.00
23164;BME280;31429;42.674;23.350;2023-04-29T00:08:59;94848.56;;;6.23;100.00
23164;BME280;31429;42.674;23.350;2023-04-29T00:10:00;94841.06;;;6.16;100.00
23164;BME280;31429;42.674;23.350;2023-04-29T00:11:00;94841.19;;;6.11;100.00
23164;BME280;31429;42.674;23.350;2023-04-29T00:12:01;94850.47;;;6.12;100.00
23164;BME280;31429;42.674;23.350;2023-04-29T00:13:01;94848.00;;;6.09;100.00
23164;BME280;31429;42.674;23.350;2023-04-29T00:14:02;94850.31;;;6.20;100.00
23164;BME280;31429;42.674;23.350;2023-04-29T00:15:03;94852.69;;;6.29;100.00
23164;BME280;31429;42.674;23.350;2023-04-29T00:16:06;94850.09;;;6.30;100.00
23164;BME280;31429;42.674;23.350;2023-04-29T00:17:07;94852.91;;;6.18;100.00
23164;BME280;31429;42.674;23.350;2023-04-29T00:18:07;94855.63;;;6.08;100.00
23164;BME280;31429;42.674;23.350;2023-04-29T00:19:08;94861.69;;;6.01;100.00
23164;BME280;31429;42.674;23.350;2023-04-29T00:20:10;94858.25;;;6.03;100.00
23164;BME280;31429;42.674;23.350;2023-04-29T00:21:11;94856.69;;;5.98;100.00
23164;BME280;31429;42.674;23.350;2023-04-29T00:22:12;94861.84;;;5.92;100.00
23164;BME280;31429;42.674;23.350;2023-04-29T00:23:14;94857.78;;;5.82;100.00
23164;BME280;31429;42.674;23.350;2023-04-29T00:24:15;94852.66;;;5.85;100.00
23164;BME280;31429;42.674;23.350;2023-04-29T00:25:16;94852.84;;;5.74;100.00
23164;BME280;31429;42.674;23.350;2023-04-29T00:26:16;94857.16;;;5.69;100.00
23164;BME280;31429;42.674;23.350;2023-04-29T00:27:17;94852.78;;;5.78;100.00
23164;BME280;31429;42.674;23.350;2023-04-29T00:28:17;94860.84;;;6.00;100.00
23164;BME280;31429;42.674;23.350;2023-04-29T00:29:18;94857.53;;;5.98;100.00
23164;BME280;31429;42.674;23.350;2023-04-29T00:30:20;94861.59;;;6.05;100.00
23164;BME280;31429;42.674;23.350;2023-04-29T00:31:20;94859.72;;;6.15;100.00
23164;BME280;31429;42.674;23.350;2023-04-29T00:32:21;94859.50;;;6.25;100.00
23164;BME280;31429;42.674;23.350;2023-04-29T00:33:22;94863.78;;;6.23;100.00
23164;BME280;31429;42.674;23.350;2023-04-29T00:34:22;94859.97;;;6.03;100.00
23164;BME280;31429;42.674;23.350;2023-04-29T00:35:23;94864.56;;;5.81;100.00
23164;BME280;31429;42.674;23.350;2023-04-29T00:36:24;94863.13;;;5.66;100.00
23164;BME280;31429;42.674;23.350;2023-04-29T00:37:25;94862.44;;;5.57;100.00
23164;BME280;31429;42.674;23.350;2023-04-29T00:38:27;94863.47;;;5.47;100.00
23164;BME280;31429;42.674;23.350;2023-04-29T00:39:28;94862.59;;;5.48;100.00
23164;BME280;31429;42.674;23.350;2023-04-29T00:40:28;94865.25;;;5.40;100.00
23164;BME280;31429;42.674;23.350;2023-04-29T00:41:29;94867.00;;;5.37;100.00
23164;BME280;31429;42.674;23.350;2023-04-29T00:42:31;94862.81;;;5.34;100.00
23164;BME280;31429;42.674;23.350;2023-04-29T00:43:34;94865.41;;;5.31;100.00
23164;BME280;31429;42.674;23.350;2023-04-29T00:44:35;94868.03;;;5.25;100.00
23164;BME280;31429;42.674;23.350;2023-04-29T00:45:35;94872.28;;;5.23;100.00
23164;BME280;31429;42.674;23.350;2023-04-29T00:46:36;94863.88;;;5.19;100.00
23164;BME280;31429;42.674;23.350;2023-04-29T00:47:37;94859.69;;;5.18;100.00
23164;BME280;31429;42.674;23.350;2023-04-29T00:48:37;94860.50;;;5.20;100.00
23164;BME280;31429;42.674;23.350;2023-04-29T00:49:38;94863.94;;;5.18;100.00
23164;BME280;31429;42.674;23.350;2023-04-29T00:50:39;94860.50;;;5.22;100.00
23164;BME280;31429;42.674;23.350;2023-04-29T00:51:40;94860.47;;;5.23;100.00
23164;BME280;31429;42.674;23.350;2023-04-29T00:52:42;94860.53;;;5.19;100.00
23164;BME280;31429;42.674;23.350;2023-04-29T00:53:44;94855.53;;;5.16;100.00
23164;BME280;31429;42.674;23.350;2023-04-29T00:54:45;94856.47;;;5.09;100.00
23164;BME280;31429;42.674;23.350;2023-04-29T00:55:46;94850.63;;;5.02;100.00
23164;BME280;31429;42.674;23.350;2023-04-29T00:56:48;94848.94;;;5.04;100.00
23164;BME280;31429;42.674;23.350;2023-04-29T00:57:50;94844.75;;;5.02;100.00
23164;BME280;31429;42.674;23.350;2023-04-29T00:58:52;94842.28;;;4.99;100.00
23164;BME280;31429;42.674;23.350;2023-04-29T00:59:53;94841.47;;;4.94;100.00
23164;BME280;31429;42.674;23.350;2023-04-29T01:00:54;94834.78;;;4.91;100.00
23164;BME280;31429;42.674;23.350;2023-04-29T01:01:55;94838.94;;;4.95;100.00
23164;BME280;31429;42.674;23.350;2023-04-29T01:02:56;94843.13;;;4.98;100.00
23164;BME280;31429;42.674;23.350;2023-04-29T01:03:58;94838.09;;;4.95;100.00
23164;BME280;31429;42.674;23.350;2023-04-29T01:05:00;94839.75;;;4.99;100.00
23164;BME280;31429;42.674;23.350;2023-04-29T01:06:08;94834.63;;;5.02;100.00
23164;BME280;31429;42.674;23.350;2023-04-29T01:07:14;94827.91;;;4.99;100.00
23164;BME280;31429;42.674;23.350;2023-04-29T01:08:24;94841.34;;;5.03;100.00
23164;BME280;31429;42.674;23.350;2023-04-29T01:09:40;94837.25;;;4.96;100.00
23164;BME280;31429;42.674;23.350;2023-04-29T01:10:48;94838.19;;;4.90;100.00
23164;BME280;31429;42.674;23.350;2023-04-29T01:11:57;94833.13;;;4.89;100.00
23164;BME280;31429;42.674;23.350;2023-04-29T01:13:06;94830.59;;;4.89;100.00
23164;BME280;31429;42.674;23.350;2023-04-29T01:14:09;94838.19;;;4.89;100.00
23164;BME280;31429;42.674;23.350;2023-04-29T01:15:16;94829.78;;;4.87;100.00
23164;BME280;31429;42.674;23.350;2023-04-29T01:16:24;94828.09;;;4.86;100.00
23164;BME280;31429;42.674;23.350;2023-04-29T01:17:30;94835.66;;;4.89;100.00
23164;BME280;31429;42.674;23.350;2023-04-29T01:18:38;94834.72;;;4.96;100.00
23164;BME280;31429;42.674;23.350;2023-04-29T01:19:45;94835.44;;;5.02;100.00
23164;BME280;31429;42.674;23.350;2023-04-29T01:20:47;94826.56;;;5.31;100.00
23164;BME280;31429;42.674;23.350;2023-04-29T01:21:48;94822.97;;;5.42;100.00
23164;BME280;31429;42.674;23.350;2023-04-29T01:22:48;94822.88;;;5.48;100.00
23164;BME280;31429;42.674;23.350;2023-04-29T01:23:50;94820.06;;;5.63;100.00
23164;BME280;31429;42.674;23.350;2023-04-29T01:24:57;94816.44;;;5.76;100.00
23164;BME280;31429;42.674;23.350;2023-04-29T01:25:58;94815.63;;;5.74;100.00
23164;BME280;31429;42.674;23.350;2023-04-29T01:27:07;94815.63;;;5.74;100.00
23164;BME280;31429;42.674;23.350;2023-04-29T01:28:18;94817.34;;;5.74;100.00
23164;BME280;31429;42.674;23.350;2023-04-29T01:29:27;94818.22;;;5.73;100.00
23164;BME280;31429;42.674;23.350;2023-04-29T01:30:36;94822.16;;;5.42;100.00
23164;BME280;31429;42.674;23.350;2023-04-29T01:31:43;94826.81;;;5.15;100.00
23164;BME280;31429;42.674;23.350;2023-04-29T01:32:52;94827.03;;;5.00;100.00
23164;BME280;31429;42.674;23.350;2023-04-29T01:34:05;94831.47;;;4.88;100.00
23164;BME280;31429;42.674;23.350;2023-04-29T01:35:13;94826.53;;;4.79;100.00
23164;BME280;31429;42.674;23.350;2023-04-29T01:36:23;94828.13;;;4.84;100.00
23164;BME280;31429;42.674;23.350;2023-04-29T01:37:33;94827.25;;;4.87;100.00
23164;BME280;31429;42.674;23.350;2023-04-29T01:38:43;94824.91;;;4.75;100.00
23164;BME280;31429;42.674;23.350;2023-04-29T01:39:56;94824.09;;;4.71;100.00
23164;BME280;31429;42.674;23.350;2023-04-29T01:41:09;94829.31;;;4.62;100.00
23164;BME280;31429;42.674;23.350;2023-04-29T01:42:16;94826.75;;;4.63;100.00
23164;BME280;31429;42.674;23.350;2023-04-29T01:43:21;94820.88;;;4.61;100.00
23164;BME280;31429;42.674;23.350;2023-04-29T01:44:27;94824.28;;;4.59;100.00
23164;BME280;31429;42.674;23.350;2023-04-29T01:45:30;94817.66;;;4.50;100.00
23164;BME280;31429;42.674;23.350;2023-04-29T01:46:31;94823.63;;;4.45;100.00
23164;BME280;31429;42.674;23.350;2023-04-29T01:47:32;94822.81;;;4.43;100.00
23164;BME280;31429;42.674;23.350;2023-04-29T01:48:35;94816.00;;;4.48;100.00
23164;BME280;31429;42.674;23.350;2023-04-29T01:49:36;94821.00;;;4.52;100.00
23164;BME280;31429;42.674;23.350;2023-04-29T01:50:37;94824.28;;;4.59;100.00
23164;BME280;31429;42.674;23.350;2023-04-29T01:51:38;94821.72;;;4.62;100.00
23164;BME280;31429;42.674;23.350;2023-04-29T01:52:39;94821.72;;;4.62;100.00
23164;BME280;31429;42.674;23.350;2023-04-29T01:53:39;94814.88;;;4.65;100.00
23164;BME280;31429;42.674;23.350;2023-04-29T01:54:40;94816.56;;;4.67;100.00
23164;BME280;31429;42.674;23.350;2023-04-29T01:55:42;94822.53;;;4.64;100.00
23164;BME280;31429;42.674;23.350;2023-04-29T01:56:43;94820.06;;;4.58;100.00
23164;BME280;31429;42.674;23.350;2023-04-29T01:57:44;94820.91;;;4.57;100.00
23164;BME280;31429;42.674;23.350;2023-04-29T01:58:44;94810.81;;;4.55;100.00
23164;BME280;31429;42.674;23.350;2023-04-29T01:59:45;94818.38;;;4.57;100.00
23164;BME280;31429;42.674;23.350;2023-04-29T02:00:46;94815.94;;;4.54;100.00
23164;BME280;31429;42.674;23.350;2023-04-29T02:01:46;94823.56;;;4.51;100.00
23164;BME280;31429;42.674;23.350;2023-04-29T02:02:47;94818.47;;;4.52;100.00
23164;BME280;31429;42.674;23.350;2023-04-29T02:03:48;94815.13;;;4.49;100.00
23164;BME280;31429;42.674;23.350;2023-04-29T02:04:48;94814.34;;;4.45;100.00
23164;BME280;31429;42.674;23.350;2023-04-29T02:05:49;94820.22;;;4.46;100.00
23164;BME280;31429;42.674;23.350;2023-04-29T02:06:50;94815.13;;;4.50;100.00
23164;BME280;31429;42.674;23.350;2023-04-29T02:07:54;94811.75;;;4.48;100.00
23164;BME280;31429;42.674;23.350;2023-04-29T02:08:54;94809.22;;;4.48;100.00
23164;BME280;31429;42.674;23.350;2023-04-29T02:09:55;94819.97;;;4.65;100.00
23164;BME280;31429;42.674;23.350;2023-04-29T02:10:58;94818.78;;;4.89;100.00
23164;BME280;31429;42.674;23.350;2023-04-29T02:11:59;94825.25;;;5.07;100.00
23164;BME280;31429;42.674;23.350;2023-04-29T02:13:00;94824.63;;;4.93;100.00
23164;BME280;31429;42.674;23.350;2023-04-29T02:14:01;94824.00;;;4.79;100.00
23164;BME280;31429;42.674;23.350;2023-04-29T02:15:01;94816.63;;;4.63;100.00
23164;BME280;31429;42.674;23.350;2023-04-29T02:16:08;94825.22;;;4.53;100.00
23164;BME280;31429;42.674;23.350;2023-04-29T02:17:09;94820.91;;;4.58;100.00
23164;BME280;31429;42.674;23.350;2023-04-29T02:18:10;94822.56;;;4.61;100.00
23164;BME280;31429;42.674;23.350;2023-04-29T02:19:10;94820.09;;;4.56;100.00
23164;BME280;31429;42.674;23.350;2023-04-29T02:20:12;94823.44;;;4.57;100.00
23164;BME280;31429;42.674;23.350;2023-04-29T02:21:12;94821.69;;;4.65;100.00
23164;BME280;31429;42.674;23.350;2023-04-29T02:22:13;94831.00;;;4.61;100.00
23164;BME280;31429;42.674;23.350;2023-04-29T02:23:14;94827.69;;;4.56;100.00
23164;BME280;31429;42.674;23.350;2023-04-29T02:24:15;94827.75;;;4.53;100.00
23164;BME280;31429;42.674;23.350;2023-04-29T02:25:15;94823.53;;;4.52;100.00
23164;BME280;31429;42.674;23.350;2023-04-29T02:26:18;94818.53;;;4.48;100.00
23164;BME280;31429;42.674;23.350;2023-04-29T02:27:19;94820.25;;;4.44;100.00
23164;BME280;31429;42.674;23.350;2023-04-29T02:28:20;94823.72;;;4.37;100.00
23164;BME280;31429;42.674;23.350;2023-04-29T02:29:20;94813.59;;;4.39;100.00
23164;BME280;31429;42.674;23.350;2023-04-29T02:30:21;94816.16;;;4.34;100.00
23164;BME280;31429;42.674;23.350;2023-04-29T02:31:22;94821.25;;;4.33;100.00
23164;BME280;31429;42.674;23.350;2023-04-29T02:32:22;94825.47;;;4.34;100.00
23164;BME280;31429;42.674;23.350;2023-04-29T02:33:23;94818.59;;;4.43;100.00
23164;BME280;31429;42.674;23.350;2023-04-29T02:34:24;94822.66;;;4.55;100.00
23164;BME280;31429;42.674;23.350;2023-04-29T02:35:24;94823.56;;;4.49;100.00
23164;BME280;31429;42.674;23.350;2023-04-29T02:36:25;94817.53;;;4.59;100.00
23164;BME280;31429;42.674;23.350;2023-04-29T02:37:26;94818.53;;;4.46;100.00
23164;BME280;31429;42.674;23.350;2023-04-29T02:38:26;94823.66;;;4.43;100.00
23164;BME280;31429;42.674;23.350;2023-04-29T02:39:27;94818.59;;;4.43;100.00
23164;BME280;31429;42.674;23.350;2023-04-29T02:40:28;94817.59;;;4.55;100.00
23164;BME280;31429;42.674;23.350;2023-04-29T02:41:30;94816.00;;;4.48;100.00
23164;BME280;31429;42.674;23.350;2023-04-29T02:42:30;94817.00;;;4.36;100.00
23164;BME280;31429;42.674;23.350;2023-04-29T02:43:31;94813.75;;;4.28;100.00
23164;BME280;31429;42.674;23.350;2023-04-29T02:44:32;94823.06;;;4.25;100.00
23164;BME280;31429;42.674;23.350;2023-04-29T02:45:32;94817.22;;;4.18;100.00
23164;BME280;31429;42.674;23.350;2023-04-29T02:46:33;94824.84;;;4.17;100.00
23164;BME280;31429;42.674;23.350;2023-04-29T02:47:35;94820.50;;;4.26;100.00
23164;BME280;31429;42.674;23.350;2023-04-29T02:48:36;94819.38;;;4.47;100.00
23164;BME280;31429;42.674;23.350;2023-04-29T02:49:37;94819.44;;;4.44;100.00
23164;BME280;31429;42.674;23.350;2023-04-29T02:50:37;94823.72;;;4.37;100.00
23164;BME280;31429;42.674;23.350;2023-04-29T02:51:38;94817.84;;;4.37;100.00
23164;BME280;31429;42.674;23.350;2023-04-29T02:52:38;94823.06;;;4.23;100.00
23164;BME280;31429;42.674;23.350;2023-04-29T02:53:41;94823.19;;;4.13;100.00
23164;BME280;31429;42.674;23.350;2023-04-29T02:54:41;94818.22;;;4.08;100.00
23164;BME280;31429;42.674;23.350;2023-04-29T02:55:42;94820.75;;;4.08;100.00
23164;BME280;31429;42.674;23.350;2023-04-29T02:56:44;94824.13;;;4.07;100.00
23164;BME280;31429;42.674;23.350;2023-04-29T02:57:45;94824.19;;;4.01;100.00
23164;BME280;31429;42.674;23.350;2023-04-29T02:58:45;94826.84;;;3.90;100.00
23164;BME280;31429;42.674;23.350;2023-04-29T02:59:46;94833.66;;;3.85;100.00
23164;BME280;31429;42.674;23.350;2023-04-29T03:00:47;94840.34;;;3.88;100.00
23164;BME280;31429;42.674;23.350;2023-04-29T03:01:47;94844.59;;;3.84;100.00
23164;BME280;31429;42.674;23.350;2023-04-29T03:02:48;94851.41;;;3.78;100.00
23164;BME280;31429;42.674;23.350;2023-04-29T03:03:49;94853.13;;;3.77;100.00
23164;BME280;31429;42.674;23.350;2023-04-29T03:04:49;94848.91;;;3.75;100.00
23164;BME280;31429;42.674;23.350;2023-04-29T03:05:50;94848.91;;;3.75;100.00
23164;BME280;31429;42.674;23.350;2023-04-29T03:06:51;94845.56;;;3.73;100.00
23164;BME280;31429;42.674;23.350;2023-04-29T03:07:51;94838.53;;;3.97;100.00
23164;BME280;31429;42.674;23.350;2023-04-29T03:08:52;94843.22;;;4.29;100.00
23164;BME280;31429;42.674;23.350;2023-04-29T03:09:53;94840.47;;;4.47;100.00
23164;BME280;31429;42.674;23.350;2023-04-29T03:10:54;94842.19;;;4.45;100.00
23164;BME280;31429;42.674;23.350;2023-04-29T03:11:56;94838.56;;;4.64;100.00
23164;BME280;31429;42.674;23.350;2023-04-29T03:12:57;94837.06;;;4.50;100.00
23164;BME280;31429;42.674;23.350;2023-04-29T03:13:57;94834.84;;;4.26;100.00
23164;BME280;31429;42.674;23.350;2023-04-29T03:14:58;94831.44;;;4.28;100.00
23164;BME280;31429;42.674;23.350;2023-04-29T03:15:59;94829.88;;;4.20;100.00
23164;BME280;31429;42.674;23.350;2023-04-29T03:17:00;94832.50;;;4.09;100.00
23164;BME280;31429;42.674;23.350;2023-04-29T03:18:01;94836.00;;;4.02;100.00
23164;BME280;31429;42.674;23.350;2023-04-29T03:19:04;94834.38;;;3.95;100.00
23164;BME280;31429;42.674;23.350;2023-04-29T03:20:05;94838.66;;;3.90;100.00
23164;BME280;31429;42.674;23.350;2023-04-29T03:21:07;94838.59;;;3.93;100.00
23164;BME280;31429;42.674;23.350;2023-04-29T03:22:08;94838.69;;;3.87;100.00
23164;BME280;31429;42.674;23.350;2023-04-29T03:23:10;94836.22;;;3.81;100.00
23164;BME280;31429;42.674;23.350;2023-04-29T03:24:11;94842.03;;;3.87;100.00
23164;BME280;31429;42.674;23.350;2023-04-29T03:25:12;94845.38;;;3.89;100.00
23164;BME280;31429;42.674;23.350;2023-04-29T03:26:12;94848.91;;;3.76;100.00
23164;BME280;31429;42.674;23.350;2023-04-29T03:27:14;94849.84;;;3.68;100.00
23164;BME280;31429;42.674;23.350;2023-04-29T03:28:15;94850.75;;;3.62;100.00
23164;BME280;31429;42.674;23.350;2023-04-29T03:29:15;94854.16;;;3.57;100.00
23164;BME280;31429;42.674;23.350;2023-04-29T03:30:16;94852.47;;;3.56;100.00
23164;BME280;31429;42.674;23.350;2023-04-29T03:31:17;94850.75;;;3.58;100.00
23164;BME280;31429;42.674;23.350;2023-04-29T03:32:19;94858.41;;;3.55;100.00
23164;BME280;31429;42.674;23.350;2023-04-29T03:33:20;94853.31;;;3.56;100.00
23164;BME280;31429;42.674;23.350;2023-04-29T03:34:21;94860.13;;;3.51;100.00
23164;BME280;31429;42.674;23.350;2023-04-29T03:35:21;94855.91;;;3.52;100.00
23164;BME280;31429;42.674;23.350;2023-04-29T03:36:22;94863.50;;;3.52;100.00
23164;BME280;31429;42.674;23.350;2023-04-29T03:37:23;94866.00;;;3.52;100.00
23164;BME280;31429;42.674;23.350;2023-04-29T03:38:23;94872.69;;;3.56;100.00
23164;BME280;31429;42.674;23.350;2023-04-29T03:39:25;94882.78;;;3.59;100.00
23164;BME280;31429;42.674;23.350;2023-04-29T03:40:27;94877.44;;;3.87;100.00
23164;BME280;31429;42.674;23.350;2023-04-29T03:41:28;94874.56;;;4.19;100.00
23164;BME280;31429;42.674;23.350;2023-04-29T03:42:30;94867.63;;;4.36;100.00
23164;BME280;31429;42.674;23.350;2023-04-29T03:43:30;94870.25;;;4.27;100.00
23164;BME280;31429;42.674;23.350;2023-04-29T03:44:31;94873.91;;;4.05;100.00
23164;BME280;31429;42.674;23.350;2023-04-29T03:45:31;94875.69;;;3.92;100.00
23164;BME280;31429;42.674;23.350;2023-04-29T03:46:32;94878.28;;;3.88;100.00
23164;BME280;31429;42.674;23.350;2023-04-29T03:47:33;94874.88;;;3.89;100.00
23164;BME280;31429;42.674;23.350;2023-04-29T03:48:33;94872.13;;;4.10;100.00
23164;BME280;31429;42.674;23.350;2023-04-29T03:49:34;94865.94;;;4.37;100.00
23164;BME280;31429;42.674;23.350;2023-04-29T03:50:35;94869.81;;;4.60;100.00
23164;BME280;31429;42.674;23.350;2023-04-29T03:51:36;94865.56;;;4.64;100.00
23164;BME280;31429;42.674;23.350;2023-04-29T03:52:37;94868.28;;;4.50;100.00
23164;BME280;31429;42.674;23.350;2023-04-29T03:53:38;94863.25;;;4.47;100.00
23164;BME280;31429;42.674;23.350;2023-04-29T03:54:39;94866.59;;;4.49;100.00
23164;BME280;31429;42.674;23.350;2023-04-29T03:55:40;94869.94;;;4.51;100.00
23164;BME280;31429;42.674;23.350;2023-04-29T03:56:41;94866.31;;;4.71;100.00
23164;BME280;31429;42.674;23.350;2023-04-29T03:57:43;94858.41;;;4.92;100.00
23164;BME280;31429;42.674;23.350;2023-04-29T03:58:44;94859.88;;;5.08;100.00
23164;BME280;31429;42.674;23.350;2023-04-29T03:59:45;94855.44;;;5.22;100.00
23164;BME280;31429;42.674;23.350;2023-04-29T04:00:49;94857.78;;;5.33;100.00
23164;BME280;31429;42.674;23.350;2023-04-29T04:01:50;94855.22;;;5.36;100.00
23164;BME280;31429;42.674;23.350;2023-04-29T04:02:53;94855.22;;;5.34;100.00
23164;BME280;31429;42.674;23.350;2023-04-29T04:03:54;94860.31;;;5.31;100.00
23164;BME280;31429;42.674;23.350;2023-04-29T04:04:54;94851.91;;;5.31;100.00
23164;BME280;31429;42.674;23.350;2023-04-29T04:05:55;94861.25;;;5.27;100.00
23164;BME280;31429;42.674;23.350;2023-04-29T04:06:56;94862.91;;;5.28;100.00
23164;BME280;31429;42.674;23.350;2023-04-29T04:07:57;94857.69;;;5.37;100.00
23164;BME280;31429;42.674;23.350;2023-04-29T04:08:59;94855.88;;;5.47;100.00
23164;BME280;31429;42.674;23.350;2023-04-29T04:10:00;94859.19;;;5.49;100.00
23164;BME280;31429;42.674;23.350;2023-04-29T04:11:01;94858.63;;;5.32;100.00
23164;BME280;31429;42.674;23.350;2023-04-29T04:12:05;94863.84;;;5.22;100.00
23164;BME280;31429;42.674;23.350;2023-04-29T04:13:07;94873.28;;;5.14;100.00
23164;BME280;31429;42.674;23.350;2023-04-29T04:14:07;94879.31;;;5.06;100.00
23164;BME280;31429;42.674;23.350;2023-04-29T04:15:09;94881.16;;;4.96;100.00
23164;BME280;31429;42.674;23.350;2023-04-29T04:16:10;94874.38;;;4.98;100.00
23164;BME280;31429;42.674;23.350;2023-04-29T04:17:10;94869.84;;;5.18;100.00
23164;BME280;31429;42.674;23.350;2023-04-29T04:18:11;94864.59;;;5.29;100.00
23164;BME280;31429;42.674;23.350;2023-04-29T04:19:12;94872.03;;;5.40;100.00
23164;BME280;31429;42.674;23.350;2023-04-29T04:20:12;94866.00;;;5.45;100.00
23164;BME280;31429;42.674;23.350;2023-04-29T04:21:13;94869.94;;;5.63;100.00
23164;BME280;31429;42.674;23.350;2023-04-29T04:22:13;94861.41;;;5.68;100.00
23164;BME280;31429;42.674;23.350;2023-04-29T04:23:16;94863.94;;;5.68;100.00
23164;BME280;31429;42.674;23.350;2023-04-29T04:24:17;94865.53;;;5.74;100.00
23164;BME280;31429;42.674;23.350;2023-04-29T04:25:17;94861.94;;;5.87;100.00
23164;BME280;31429;42.674;23.350;2023-04-29T04:26:18;94856.81;;;5.90;100.00
23164;BME280;31429;42.674;23.350;2023-04-29T04:27:19;94860.91;;;5.97;100.00
23164;BME280;31429;42.674;23.350;2023-04-29T04:28:21;94865.97;;;5.97;100.00
23164;BME280;31429;42.674;23.350;2023-04-29T04:29:22;94860.78;;;6.03;100.00
23164;BME280;31429;42.674;23.350;2023-04-29T04:30:23;94855.38;;;6.21;100.00
23164;BME280;31429;42.674;23.350;2023-04-29T04:31:23;94828.91;;;9.51;100.00
23164;BME280;31429;42.674;23.350;2023-04-29T04:32:25;94852.97;;;8.30;100.00
23164;BME280;31429;42.674;23.350;2023-04-29T04:33:26;94861.00;;;7.14;100.00
23164;BME280;31429;42.674;23.350;2023-04-29T04:34:27;94860.25;;;6.72;100.00
23164;BME280;31429;42.674;23.350;2023-04-29T04:35:27;94858.00;;;6.58;100.00
23164;BME280;31429;42.674;23.350;2023-04-29T04:36:28;94855.78;;;6.43;100.00
23164;BME280;31429;42.674;23.350;2023-04-29T04:37:28;94858.38;;;6.40;100.00
23164;BME280;31429;42.674;23.350;2023-04-29T04:38:29;94857.47;;;6.44;100.00
23164;BME280;31429;42.674;23.350;2023-04-29T04:39:32;94862.56;;;6.43;100.00
23164;BME280;31429;42.674;23.350;2023-04-29T04:40:32;94864.19;;;6.45;100.00
23164;BME280;31429;42.674;23.350;2023-04-29T04:41:33;94866.13;;;6.34;100.00
23164;BME280;31429;42.674;23.350;2023-04-29T04:42:34;94859.34;;;6.33;100.00
23164;BME280;31429;42.674;23.350;2023-04-29T04:43:36;94861.91;;;6.33;100.00
23164;BME280;31429;42.674;23.350;2023-04-29T04:44:37;94862.03;;;6.27;100.00
23164;BME280;31429;42.674;23.350;2023-04-29T04:45:38;94868.81;;;6.25;100.00
23164;BME280;31429;42.674;23.350;2023-04-29T04:46:39;94868.69;;;6.32;100.00
23164;BME280;31429;42.674;23.350;2023-04-29T04:47:40;94862.44;;;6.47;100.00
23164;BME280;31429;42.674;23.350;2023-04-29T04:48:41;94865.78;;;6.51;100.00
23164;BME280;31429;42.674;23.350;2023-04-29T04:49:41;94877.44;;;6.61;100.00
23164;BME280;31429;42.674;23.350;2023-04-29T04:50:43;94869.81;;;6.61;100.00
23164;BME280;31429;42.674;23.350;2023-04-29T04:51:44;94877.38;;;6.64;100.00
23164;BME280;31429;42.674;23.350;2023-04-29T04:52:47;94879.00;;;6.66;100.00
23164;BME280;31429;42.674;23.350;2023-04-29T04:53:48;94873.81;;;6.71;100.00
23164;BME280;31429;42.674;23.350;2023-04-29T04:54:48;94872.69;;;6.84;100.00
23164;BME280;31429;42.674;23.350;2023-04-29T04:55:49;94874.09;;;6.97;100.00
23164;BME280;31429;42.674;23.350;2023-04-29T04:56:50;94874.13;;;6.95;100.00
23164;BME280;31429;42.674;23.350;2023-04-29T04:57:51;94869.63;;;7.07;100.00
23164;BME280;31429;42.674;23.350;2023-04-29T04:58:53;94873.84;;;7.09;100.00
23164;BME280;31429;42.674;23.350;2023-04-29T04:59:54;94871.22;;;7.12;100.00
23164;BME280;31429;42.674;23.350;2023-04-29T05:00:54;94868.50;;;7.20;100.00
23164;BME280;31429;42.674;23.350;2023-04-29T05:01:55;94867.72;;;7.18;100.00
23164;BME280;31429;42.674;23.350;2023-04-29T05:02:55;94861.72;;;7.20;100.00
23164;BME280;31429;42.674;23.350;2023-04-29T05:03:56;94863.19;;;7.29;100.00
23164;BME280;31429;42.674;23.350;2023-04-29T05:04:57;94856.56;;;7.23;100.00
23164;BME280;31429;42.674;23.350;2023-04-29T05:05:59;94856.09;;;7.06;100.00
23164;BME280;31429;42.674;23.350;2023-04-29T05:06:59;94854.31;;;7.10;100.00
23164;BME280;31429;42.674;23.350;2023-04-29T05:08:00;94848.94;;;7.23;100.00
23164;BME280;31429;42.674;23.350;2023-04-29T05:09:01;94844.56;;;7.28;100.00
23164;BME280;31429;42.674;23.350;2023-04-29T05:10:02;94846.34;;;7.25;100.00
23164;BME280;31429;42.674;23.350;2023-04-29T05:11:03;94845.63;;;7.20;100.00
23164;BME280;31429;42.674;23.350;2023-04-29T05:12:03;94847.38;;;7.18;100.00
23164;BME280;31429;42.674;23.350;2023-04-29T05:13:04;94849.75;;;7.24;100.00
23164;BME280;31429;42.674;23.350;2023-04-29T05:14:06;94855.72;;;7.23;100.00
23164;BME280;31429;42.674;23.350;2023-04-29T05:15:07;94851.94;;;7.39;100.00
23164;BME280;31429;42.674;23.350;2023-04-29T05:16:08;94851.84;;;7.42;100.00
23164;BME280;31429;42.674;23.350;2023-04-29T05:17:09;94849.38;;;7.39;100.00
23164;BME280;31429;42.674;23.350;2023-04-29T05:18:10;94845.00;;;7.44;100.00
23164;BME280;31429;42.674;23.350;2023-04-29T05:19:11;94833.13;;;7.46;100.00
23164;BME280;31429;42.674;23.350;2023-04-29T05:20:12;94839.06;;;7.45;100.00
23164;BME280;31429;42.674;23.350;2023-04-29T05:21:12;94845.41;;;7.63;100.00
23164;BME280;31429;42.674;23.350;2023-04-29T05:22:13;94830.81;;;7.69;100.00
23164;BME280;31429;42.674;23.350;2023-04-29T05:23:14;94832.34;;;7.76;100.00